Tuesday, November 25, 2014, 9:42 PM EST

KLNS, Lancaster Airport

Location: Lititz, PA, United States Lat: 40.117
Local Time: 9:42 PM EST ( 2:42 GMT) Lon: -76.3
Time Zone: US/Eastern Elev: 403 ft

Show me the last for .
Show Decoded

2014-11-25 20:53 METAR KLNS 260153Z 00000KT 10SM CLR 04/M02 A3011 RMK AO2 SLP199 T00391017 =
2014-11-25 19:53 METAR KLNS 260053Z 00000KT 10SM CLR 07/M02 A3012 RMK AO2 SLP200 T00671022 =
2014-11-25 18:53 METAR KLNS 252353Z 28003KT 10SM CLR 04/M02 A3009 RMK AO2 SLP192 T00441017 10117
                 20039 53022 =
2014-11-25 17:53 METAR KLNS 252253Z 25003KT 10SM CLR 09/M03 A3006 RMK AO2 SLP181 T00891028 =
2014-11-25 16:53 METAR KLNS 252153Z 29006KT 10SM CLR 09/M02 A3003 RMK AO2 SLP171 T00891022 =
2014-11-25 15:53 METAR KLNS 252053Z 28006KT 10SM CLR 11/M01 A3003 RMK AO2 SLP168 T01061011 53001
                 =
2014-11-25 14:53 METAR KLNS 251953Z 28008KT 10SM CLR 11/M02 A3001 RMK AO2 SLP165 T01111017 =
2014-11-25 13:53 METAR KLNS 251853Z 29013KT 10SM CLR 11/M02 A3002 RMK AO2 SLP164 T01111022 =
2014-11-25 12:53 METAR KLNS 251753Z 28013KT 10SM CLR 11/M02 A3002 RMK AO2 SLP167 T01111017 10111
                 20083 58004 =
2014-11-25 11:53 METAR KLNS 251653Z 28010KT 10SM CLR 11/M01 A3004 RMK AO2 SLP173 T01061011 =
2014-11-25 10:53 METAR KLNS 251553Z 28012KT 10SM CLR 10/M01 A3005 RMK AO2 SLP177 T01001011 =
2014-11-25 09:53 METAR KLNS 251453Z 28005KT 10SM CLR 09/01 A3004 RMK AO2 SLP171 T00940006 51022 =
2014-11-25 07:53 METAR KLNS 251253Z 30008KT 10SM CLR 08/01 A3000 RMK AO2 SLP157 T00830011 =
2014-11-25 06:53 METAR KLNS 251153Z 30008KT 10SM CLR 09/01 A2997 RMK AO2 SLP149 T00940011 10133
                 20094 51036 =
2014-11-25 05:53 METAR KLNS 251053Z AUTO 30009KT 10SM CLR 10/02 A2994 RMK AO2 SLP137 T01000022 =
2014-11-25 04:53 METAR KLNS 250953Z AUTO 29009KT 10SM FEW075 11/02 A2991 RMK AO2 SLP128 T01110022
                 =
2014-11-25 03:53 METAR KLNS 250853Z AUTO 28009KT 10SM CLR 12/02 A2986 RMK AO2 SLP111 T01220017
                 53028 =
2014-11-25 02:53 METAR KLNS 250753Z AUTO 29009KT 10SM CLR 12/08 A2983 RMK AO2 SLP099 T01170083 =
2014-11-25 01:53 METAR KLNS 250653Z AUTO 23004KT 10SM SCT065 13/10 A2981 RMK AO2 SLP094 T01280100
                 =
2014-11-25 00:53 METAR KLNS 250553Z AUTO 31003KT 10SM CLR 12/10 A2978 RMK AO2 SLP082 T01220100
                 10172 20122 51023 =
2014-11-24 23:53 METAR KLNS 250453Z AUTO 23005KT 10SM CLR 15/11 A2977 RMK AO2 SLP079 T01500111
                 402060100 =
2014-11-24 22:53 METAR KLNS 250353Z 21011KT 10SM CLR 16/11 A2974 RMK AO2 SLP071 T01610111 =
2014-11-24 21:53 METAR KLNS 250253Z 22006KT 10SM CLR 16/11 A2971 RMK AO2 SLP059 T01560106 53021 =

Support USWX by starting your Amazon purchase here.